sensor_id;sensor_type;location;lat;lon;timestamp;pressure;altitude;pressure_sealevel;temperature;humidity
70407;BME280;57821;52.202;0.154;2023-05-24T00:00:58;102593.09;;;13.14;65.29
70407;BME280;57821;52.202;0.154;2023-05-24T00:03:24;102592.19;;;13.12;65.37
70407;BME280;57821;52.202;0.154;2023-05-24T00:05:51;102589.50;;;13.09;64.75
70407;BME280;57821;52.202;0.154;2023-05-24T00:08:18;102589.44;;;13.06;64.88
70407;BME280;57821;52.202;0.154;2023-05-24T00:10:44;102591.19;;;13.04;65.66
70407;BME280;57821;52.202;0.154;2023-05-24T00:13:11;102586.75;;;13.00;65.77
70407;BME280;57821;52.202;0.154;2023-05-24T00:15:37;102579.72;;;12.95;65.64
70407;BME280;57821;52.202;0.154;2023-05-24T00:18:04;102594.47;;;12.94;65.45
70407;BME280;57821;52.202;0.154;2023-05-24T00:20:31;102585.72;;;12.89;65.81
70407;BME280;57821;52.202;0.154;2023-05-24T00:22:57;102580.47;;;12.86;65.64
70407;BME280;57821;52.202;0.154;2023-05-24T00:25:24;102592.53;;;12.81;66.38
70407;BME280;57821;52.202;0.154;2023-05-24T00:27:50;102585.56;;;12.79;66.18
70407;BME280;57821;52.202;0.154;2023-05-24T00:30:17;102584.63;;;12.75;66.38
70407;BME280;57821;52.202;0.154;2023-05-24T00:32:43;102583.72;;;12.73;66.31
70407;BME280;57821;52.202;0.154;2023-05-24T00:35:10;102589.75;;;12.70;66.13
70407;BME280;57821;52.202;0.154;2023-05-24T00:37:37;102591.44;;;12.67;67.07
70407;BME280;57821;52.202;0.154;2023-05-24T00:40:04;102587.88;;;12.62;67.24
70407;BME280;57821;52.202;0.154;2023-05-24T00:42:30;102583.47;;;12.59;66.81
70407;BME280;57821;52.202;0.154;2023-05-24T00:44:57;102588.63;;;12.55;67.76
70407;BME280;57821;52.202;0.154;2023-05-24T00:47:23;102582.50;;;12.53;67.83
70407;BME280;57821;52.202;0.154;2023-05-24T00:49:50;102582.38;;;12.47;67.96
70407;BME280;57821;52.202;0.154;2023-05-24T00:52:17;102579.75;;;12.44;67.56
70407;BME280;57821;52.202;0.154;2023-05-24T00:54:44;102579.69;;;12.41;67.90
70407;BME280;57821;52.202;0.154;2023-05-24T00:57:11;102573.59;;;12.39;67.65
70407;BME280;57821;52.202;0.154;2023-05-24T00:59:39;102582.22;;;12.36;67.93
70407;BME280;57821;52.202;0.154;2023-05-24T01:02:06;102576.97;;;12.33;67.99
70407;BME280;57821;52.202;0.154;2023-05-24T01:04:32;102569.09;;;12.28;68.04
70407;BME280;57821;52.202;0.154;2023-05-24T01:12:19;102575.00;;;12.20;68.29
70407;BME280;57821;52.202;0.154;2023-05-24T01:18:01;102567.03;;;12.12;69.65
70407;BME280;57821;52.202;0.154;2023-05-24T01:20:32;102561.75;;;12.08;69.06
70407;BME280;57821;52.202;0.154;2023-05-24T01:26:12;102568.63;;;12.04;69.40
70407;BME280;57821;52.202;0.154;2023-05-24T01:28:39;102564.25;;;12.02;69.02
70407;BME280;57821;52.202;0.154;2023-05-24T01:31:06;102567.63;;;11.98;68.50
70407;BME280;57821;52.202;0.154;2023-05-24T01:33:33;102565.00;;;11.96;69.14
70407;BME280;57821;52.202;0.154;2023-05-24T01:36:00;102556.28;;;11.92;68.92
70407;BME280;57821;52.202;0.154;2023-05-24T01:38:26;102563.13;;;11.89;69.69
70407;BME280;57821;52.202;0.154;2023-05-24T01:40:58;102556.88;;;11.79;70.07
70407;BME280;57821;52.202;0.154;2023-05-24T01:46:10;102556.88;;;11.79;70.66
70407;BME280;57821;52.202;0.154;2023-05-24T01:48:58;102545.44;;;11.73;70.61
70407;BME280;57821;52.202;0.154;2023-05-24T01:51:43;102557.66;;;11.75;70.75
70407;BME280;57821;52.202;0.154;2023-05-24T01:54:15;102567.16;;;11.73;70.62
70407;BME280;57821;52.202;0.154;2023-05-24T01:56:46;102550.47;;;11.64;70.58
70407;BME280;57821;52.202;0.154;2023-05-24T01:59:14;102560.06;;;11.68;70.07
70407;BME280;57821;52.202;0.154;2023-05-24T02:01:40;102558.28;;;11.64;70.52
70407;BME280;57821;52.202;0.154;2023-05-24T02:04:07;102553.81;;;11.60;70.65
70407;BME280;57821;52.202;0.154;2023-05-24T02:06:34;102553.78;;;11.57;70.38
70407;BME280;57821;52.202;0.154;2023-05-24T02:09:00;102549.44;;;11.56;71.21
70407;BME280;57821;52.202;0.154;2023-05-24T02:11:27;102541.59;;;11.52;70.71
70407;BME280;57821;52.202;0.154;2023-05-24T02:13:53;102550.13;;;11.48;71.25
70407;BME280;57821;52.202;0.154;2023-05-24T02:16:20;102549.16;;;11.43;70.78
70407;BME280;57821;52.202;0.154;2023-05-24T02:18:46;102549.13;;;11.40;71.23
70407;BME280;57821;52.202;0.154;2023-05-24T02:21:13;102549.91;;;11.38;71.07
70407;BME280;57821;52.202;0.154;2023-05-24T02:23:39;102551.59;;;11.34;71.37
70407;BME280;57821;52.202;0.154;2023-05-24T02:26:06;102550.63;;;11.31;71.10
70407;BME280;57821;52.202;0.154;2023-05-24T02:28:33;102552.28;;;11.27;71.02
70407;BME280;57821;52.202;0.154;2023-05-24T02:30:59;102553.94;;;11.24;71.42
70407;BME280;57821;52.202;0.154;2023-05-24T02:33:26;102559.94;;;11.21;71.76
70407;BME280;57821;52.202;0.154;2023-05-24T02:35:53;102555.53;;;11.17;71.80
70407;BME280;57821;52.202;0.154;2023-05-24T02:38:19;102553.69;;;11.13;71.95
70407;BME280;57821;52.202;0.154;2023-05-24T02:40:46;102557.91;;;11.08;72.26
70407;BME280;57821;52.202;0.154;2023-05-24T02:43:12;102559.53;;;11.03;72.32
70407;BME280;57821;52.202;0.154;2023-05-24T02:45:39;102562.91;;;10.99;72.32
70407;BME280;57821;52.202;0.154;2023-05-24T02:48:06;102571.53;;;10.98;72.91
70407;BME280;57821;52.202;0.154;2023-05-24T02:50:32;102561.09;;;10.95;72.67
70407;BME280;57821;52.202;0.154;2023-05-24T02:52:59;102556.69;;;10.92;72.46
70407;BME280;57821;52.202;0.154;2023-05-24T02:55:26;102559.19;;;10.88;72.84
70407;BME280;57821;52.202;0.154;2023-05-24T02:57:52;102555.66;;;10.86;73.09
70407;BME280;57821;52.202;0.154;2023-05-24T03:00:19;102558.09;;;10.80;73.37
70407;BME280;57821;52.202;0.154;2023-05-24T03:02:56;102569.25;;;10.76;73.45
70407;BME280;57821;52.202;0.154;2023-05-24T03:05:22;102570.06;;;10.73;72.67
70407;BME280;57821;52.202;0.154;2023-05-24T03:07:49;102570.00;;;10.70;73.56
70407;BME280;57821;52.202;0.154;2023-05-24T03:10:16;102571.69;;;10.69;73.64
70407;BME280;57821;52.202;0.154;2023-05-24T03:12:42;102575.97;;;10.67;74.07
70407;BME280;57821;52.202;0.154;2023-05-24T03:15:09;102574.22;;;10.66;74.05
70407;BME280;57821;52.202;0.154;2023-05-24T03:17:36;102568.13;;;10.66;74.08
70407;BME280;57821;52.202;0.154;2023-05-24T03:20:03;102571.59;;;10.65;73.93
70407;BME280;57821;52.202;0.154;2023-05-24T03:22:30;102572.38;;;10.62;73.92
70407;BME280;57821;52.202;0.154;2023-05-24T03:24:57;102568.97;;;10.63;73.84
70407;BME280;57821;52.202;0.154;2023-05-24T03:27:24;102568.88;;;10.60;74.38
70407;BME280;57821;52.202;0.154;2023-05-24T03:29:50;102563.63;;;10.57;73.74
70407;BME280;57821;52.202;0.154;2023-05-24T03:32:20;102568.72;;;10.54;74.15
70407;BME280;57821;52.202;0.154;2023-05-24T03:34:47;102572.06;;;10.50;74.05
70407;BME280;57821;52.202;0.154;2023-05-24T03:37:14;102563.41;;;10.48;74.26
70407;BME280;57821;52.202;0.154;2023-05-24T03:39:42;102558.16;;;10.47;74.42
70407;BME280;57821;52.202;0.154;2023-05-24T03:42:35;102555.56;;;10.47;74.35
70407;BME280;57821;52.202;0.154;2023-05-24T03:45:02;102545.16;;;10.45;74.43
70407;BME280;57821;52.202;0.154;2023-05-24T03:47:30;102545.09;;;10.42;74.42
70407;BME280;57821;52.202;0.154;2023-05-24T03:49:56;102546.00;;;10.44;74.44
70407;BME280;57821;52.202;0.154;2023-05-24T03:52:23;102540.84;;;10.46;74.57
70407;BME280;57821;52.202;0.154;2023-05-24T03:54:50;102537.38;;;10.45;74.26
70407;BME280;57821;52.202;0.154;2023-05-24T03:57:17;102539.13;;;10.46;74.76
70407;BME280;57821;52.202;0.154;2023-05-24T03:59:43;102539.19;;;10.49;74.34
70407;BME280;57821;52.202;0.154;2023-05-24T04:02:10;102543.50;;;10.49;74.58
70407;BME280;57821;52.202;0.154;2023-05-24T04:04:36;102540.94;;;10.50;74.51
70407;BME280;57821;52.202;0.154;2023-05-24T04:07:03;102550.50;;;10.51;73.98
70407;BME280;57821;52.202;0.154;2023-05-24T04:09:30;102549.66;;;10.52;74.65
70407;BME280;57821;52.202;0.154;2023-05-24T04:11:56;102546.22;;;10.53;73.94
70407;BME280;57821;52.202;0.154;2023-05-24T04:14:23;102543.59;;;10.52;74.38
70407;BME280;57821;52.202;0.154;2023-05-24T04:16:50;102547.13;;;10.54;74.83
70407;BME280;57821;52.202;0.154;2023-05-24T04:19:18;102549.66;;;10.52;74.73
70407;BME280;57821;52.202;0.154;2023-05-24T04:21:44;102537.53;;;10.51;74.22
70407;BME280;57821;52.202;0.154;2023-05-24T04:24:11;102538.34;;;10.50;74.39
70407;BME280;57821;52.202;0.154;2023-05-24T04:26:37;102537.47;;;10.50;74.34
70407;BME280;57821;52.202;0.154;2023-05-24T04:29:04;102539.19;;;10.49;74.60
70407;BME280;57821;52.202;0.154;2023-05-24T04:31:31;102531.41;;;10.48;74.67
70407;BME280;57821;52.202;0.154;2023-05-24T04:33:58;102534.00;;;10.49;74.93
70407;BME280;57821;52.202;0.154;2023-05-24T04:36:24;102528.81;;;10.48;74.71
70407;BME280;57821;52.202;0.154;2023-05-24T04:38:53;102535.72;;;10.47;74.79
70407;BME280;57821;52.202;0.154;2023-05-24T04:41:19;102542.66;;;10.48;75.40
70407;BME280;57821;52.202;0.154;2023-05-24T04:43:46;102552.16;;;10.49;74.52
70407;BME280;57821;52.202;0.154;2023-05-24T04:46:12;102558.28;;;10.51;75.02
70407;BME280;57821;52.202;0.154;2023-05-24T04:48:39;102554.84;;;10.52;74.76
70407;BME280;57821;52.202;0.154;2023-05-24T04:51:06;102550.50;;;10.51;74.61
70407;BME280;57821;52.202;0.154;2023-05-24T04:53:32;102550.50;;;10.51;75.45
70407;BME280;57821;52.202;0.154;2023-05-24T04:55:59;102551.28;;;10.47;75.25
70407;BME280;57821;52.202;0.154;2023-05-24T04:58:25;102547.75;;;10.45;75.49
70407;BME280;57821;52.202;0.154;2023-05-24T05:00:52;102564.97;;;10.43;75.37
70407;BME280;57821;52.202;0.154;2023-05-24T05:03:18;102562.28;;;10.39;75.66
70407;BME280;57821;52.202;0.154;2023-05-24T05:05:45;102560.50;;;10.36;75.95
70407;BME280;57821;52.202;0.154;2023-05-24T05:08:12;102553.53;;;10.35;76.22
70407;BME280;57821;52.202;0.154;2023-05-24T05:10:38;102558.78;;;10.37;75.66
70407;BME280;57821;52.202;0.154;2023-05-24T05:13:05;102563.16;;;10.39;75.99
70407;BME280;57821;52.202;0.154;2023-05-24T05:15:32;102554.53;;;10.40;76.25
70407;BME280;57821;52.202;0.154;2023-05-24T05:17:58;102558.06;;;10.44;76.13
70407;BME280;57821;52.202;0.154;2023-05-24T05:20:25;102556.50;;;10.50;76.15
70407;BME280;57821;52.202;0.154;2023-05-24T05:22:52;102558.34;;;10.54;76.30
70407;BME280;57821;52.202;0.154;2023-05-24T05:25:18;102558.44;;;10.57;76.35
70407;BME280;57821;52.202;0.154;2023-05-24T05:27:45;102560.19;;;10.58;76.74
70407;BME280;57821;52.202;0.154;2023-05-24T05:30:12;102559.47;;;10.64;76.64
70407;BME280;57821;52.202;0.154;2023-05-24T05:32:38;102563.88;;;10.68;76.79
70407;BME280;57821;52.202;0.154;2023-05-24T05:35:05;102566.56;;;10.73;76.73
70407;BME280;57821;52.202;0.154;2023-05-24T05:37:32;102561.47;;;10.76;76.93
70407;BME280;57821;52.202;0.154;2023-05-24T05:39:59;102565.97;;;10.83;76.49
70407;BME280;57821;52.202;0.154;2023-05-24T05:42:25;102566.97;;;10.88;76.78
70407;BME280;57821;52.202;0.154;2023-05-24T05:44:52;102566.28;;;10.95;76.50
70407;BME280;57821;52.202;0.154;2023-05-24T05:47:18;102576.81;;;11.02;76.69
70407;BME280;57821;52.202;0.154;2023-05-24T05:49:45;102566.63;;;11.10;77.10
70407;BME280;57821;52.202;0.154;2023-05-24T05:52:11;102573.69;;;11.17;77.01
70407;BME280;57821;52.202;0.154;2023-05-24T05:54:38;102580.00;;;11.28;77.05
70407;BME280;57821;52.202;0.154;2023-05-24T05:57:05;102580.19;;;11.37;76.94
70407;BME280;57821;52.202;0.154;2023-05-24T05:59:31;102582.13;;;11.46;76.78
70407;BME280;57821;52.202;0.154;2023-05-24T06:01:58;102575.38;;;11.54;77.01
70407;BME280;57821;52.202;0.154;2023-05-24T06:04:24;102579.91;;;11.63;77.01
70407;BME280;57821;52.202;0.154;2023-05-24T06:06:51;102585.25;;;11.72;76.86
70407;BME280;57821;52.202;0.154;2023-05-24T06:09:18;102594.13;;;11.80;76.34
70407;BME280;57821;52.202;0.154;2023-05-24T06:11:45;102596.88;;;11.86;76.64
70407;BME280;57821;52.202;0.154;2023-05-24T06:14:11;102590.94;;;11.93;76.48
70407;BME280;57821;52.202;0.154;2023-05-24T06:16:38;102582.38;;;11.99;76.10
70407;BME280;57821;52.202;0.154;2023-05-24T06:19:04;102584.28;;;12.07;75.77
70407;BME280;57821;52.202;0.154;2023-05-24T06:21:32;102574.81;;;12.11;75.87
70407;BME280;57821;52.202;0.154;2023-05-24T06:23:58;102575.88;;;12.20;75.93
70407;BME280;57821;52.202;0.154;2023-05-24T06:26:25;102582.09;;;12.30;75.22
70407;BME280;57821;52.202;0.154;2023-05-24T06:28:52;102576.16;;;12.37;75.00
70407;BME280;57821;52.202;0.154;2023-05-24T06:31:18;102576.31;;;12.45;75.10
70407;BME280;57821;52.202;0.154;2023-05-24T06:33:45;102581.63;;;12.51;75.09
70407;BME280;57821;52.202;0.154;2023-05-24T06:36:27;102586.09;;;12.58;74.63
70407;BME280;57821;52.202;0.154;2023-05-24T06:38:54;102593.97;;;12.64;74.47
70407;BME280;57821;52.202;0.154;2023-05-24T06:41:21;102594.06;;;12.70;74.06
70407;BME280;57821;52.202;0.154;2023-05-24T06:43:47;102601.13;;;12.77;74.54
70407;BME280;57821;52.202;0.154;2023-05-24T06:46:14;102597.78;;;12.84;74.54
70407;BME280;57821;52.202;0.154;2023-05-24T06:48:40;102587.50;;;12.92;74.25
70407;BME280;57821;52.202;0.154;2023-05-24T06:51:07;102595.41;;;12.99;73.40
70407;BME280;57821;52.202;0.154;2023-05-24T06:53:34;102596.41;;;13.07;73.49
70407;BME280;57821;52.202;0.154;2023-05-24T06:56:00;102593.09;;;13.14;73.93
70407;BME280;57821;52.202;0.154;2023-05-24T06:58:27;102590.59;;;13.21;73.42
70407;BME280;57821;52.202;0.154;2023-05-24T07:00:54;102586.34;;;13.29;73.53
70407;BME280;57821;52.202;0.154;2023-05-24T07:03:20;102588.16;;;13.34;73.49
70407;BME280;57821;52.202;0.154;2023-05-24T07:05:47;102595.22;;;13.43;73.18
70407;BME280;57821;52.202;0.154;2023-05-24T07:08:13;102593.63;;;13.51;72.45
70407;BME280;57821;52.202;0.154;2023-05-24T07:10:40;102595.47;;;13.61;72.91
70407;BME280;57821;52.202;0.154;2023-05-24T07:13:07;102613.81;;;13.69;72.81
70407;BME280;57821;52.202;0.154;2023-05-24T07:15:33;102610.47;;;13.79;72.66
70407;BME280;57821;52.202;0.154;2023-05-24T07:18:00;102610.59;;;13.89;72.38
70407;BME280;57821;52.202;0.154;2023-05-24T07:20:27;102614.22;;;14.01;72.25
70407;BME280;57821;52.202;0.154;2023-05-24T07:22:53;102615.19;;;14.10;71.92
70407;BME280;57821;52.202;0.154;2023-05-24T07:25:20;102609.22;;;14.20;71.62
70407;BME280;57821;52.202;0.154;2023-05-24T07:27:46;102611.09;;;14.32;71.15
70407;BME280;57821;52.202;0.154;2023-05-24T07:30:13;102619.03;;;14.41;71.03
70407;BME280;57821;52.202;0.154;2023-05-24T07:32:56;102608.72;;;14.53;70.78
70407;BME280;57821;52.202;0.154;2023-05-24T07:35:23;102610.53;;;14.63;70.07
70407;BME280;57821;52.202;0.154;2023-05-24T07:37:50;102610.63;;;14.72;70.03
70407;BME280;57821;52.202;0.154;2023-05-24T07:40:16;102610.69;;;14.82;69.92
70407;BME280;57821;52.202;0.154;2023-05-24T07:42:43;102608.19;;;14.94;69.18
70407;BME280;57821;52.202;0.154;2023-05-24T07:45:09;102623.06;;;15.04;68.87
70407;BME280;57821;52.202;0.154;2023-05-24T07:47:36;102616.16;;;15.15;69.14
70407;BME280;57821;52.202;0.154;2023-05-24T07:50:03;102607.53;;;15.27;68.74
70407;BME280;57821;52.202;0.154;2023-05-24T07:52:30;102602.41;;;15.40;68.39
70407;BME280;57821;52.202;0.154;2023-05-24T07:54:56;102604.19;;;15.49;67.77
70407;BME280;57821;52.202;0.154;2023-05-24T07:57:23;102601.66;;;15.61;67.42
70407;BME280;57821;52.202;0.154;2023-05-24T07:59:49;102606.97;;;15.72;67.49
70407;BME280;57821;52.202;0.154;2023-05-24T08:02:16;102604.38;;;15.81;67.00
70407;BME280;57821;52.202;0.154;2023-05-24T08:04:42;102602.69;;;15.93;67.41
70407;BME280;57821;52.202;0.154;2023-05-24T08:07:09;102599.22;;;16.03;66.58
70407;BME280;57821;52.202;0.154;2023-05-24T08:09:36;102601.00;;;16.12;66.13
70407;BME280;57821;52.202;0.154;2023-05-24T08:12:04;102599.28;;;16.23;65.90
70407;BME280;57821;52.202;0.154;2023-05-24T08:14:31;102599.28;;;16.34;66.07
70407;BME280;57821;52.202;0.154;2023-05-24T08:16:58;102591.44;;;16.44;65.47
70407;BME280;57821;52.202;0.154;2023-05-24T08:19:25;102594.06;;;16.57;64.90
70407;BME280;57821;52.202;0.154;2023-05-24T08:21:54;102581.03;;;16.60;64.63
70407;BME280;57821;52.202;0.154;2023-05-24T08:24:20;102584.50;;;16.74;64.28
70407;BME280;57821;52.202;0.154;2023-05-24T08:26:47;102589.72;;;16.84;64.13
70407;BME280;57821;52.202;0.154;2023-05-24T08:29:13;102571.41;;;16.94;63.90
70407;BME280;57821;52.202;0.154;2023-05-24T08:31:40;102567.88;;;17.07;64.01
70407;BME280;57821;52.202;0.154;2023-05-24T08:34:07;102574.81;;;17.18;63.46
70407;BME280;57821;52.202;0.154;2023-05-24T08:36:34;102576.56;;;17.25;62.36
70407;BME280;57821;52.202;0.154;2023-05-24T08:39:00;102578.28;;;17.36;62.51
70407;BME280;57821;52.202;0.154;2023-05-24T08:41:27;102585.25;;;17.46;62.39
70407;BME280;57821;52.202;0.154;2023-05-24T08:43:56;102584.38;;;17.53;61.67
70407;BME280;57821;52.202;0.154;2023-05-24T08:46:26;102583.44;;;17.66;61.54
70407;BME280;57821;52.202;0.154;2023-05-24T08:48:54;102586.03;;;17.77;61.68
70407;BME280;57821;52.202;0.154;2023-05-24T08:51:23;102592.97;;;17.90;61.26
70407;BME280;57821;52.202;0.154;2023-05-24T08:53:49;102592.03;;;18.04;61.15
70407;BME280;57821;52.202;0.154;2023-05-24T08:56:18;102589.31;;;18.18;60.80
70407;BME280;57821;52.202;0.154;2023-05-24T08:58:45;102590.09;;;18.31;60.37
70407;BME280;57821;52.202;0.154;2023-05-24T09:01:13;102582.19;;;18.40;58.53
70407;BME280;57821;52.202;0.154;2023-05-24T09:03:40;102582.97;;;18.48;58.53
70407;BME280;57821;52.202;0.154;2023-05-24T09:06:09;102588.19;;;18.54;57.98
70407;BME280;57821;52.202;0.154;2023-05-24T09:08:36;102593.41;;;18.63;57.38
70407;BME280;57821;52.202;0.154;2023-05-24T09:11:04;102584.56;;;18.70;57.34
70407;BME280;57821;52.202;0.154;2023-05-24T09:13:30;102580.13;;;18.77;56.77
70407;BME280;57821;52.202;0.154;2023-05-24T09:16:01;102590.53;;;18.87;56.56
70407;BME280;57821;52.202;0.154;2023-05-24T09:18:28;102580.84;;;18.97;56.56
70407;BME280;57821;52.202;0.154;2023-05-24T09:20:54;102585.06;;;19.12;56.86
70407;BME280;57821;52.202;0.154;2023-05-24T09:23:21;102584.00;;;19.28;56.46
70407;BME280;57821;52.202;0.154;2023-05-24T09:25:49;102589.13;;;19.43;55.99
70407;BME280;57821;52.202;0.154;2023-05-24T09:28:17;102591.72;;;19.45;55.19
70407;BME280;57821;52.202;0.154;2023-05-24T09:30:45;102588.22;;;19.47;55.43
70407;BME280;57821;52.202;0.154;2023-05-24T09:33:22;102586.31;;;19.60;55.68
70407;BME280;57821;52.202;0.154;2023-05-24T09:35:49;102571.31;;;19.66;53.91
70407;BME280;57821;52.202;0.154;2023-05-24T09:38:17;102571.97;;;19.84;55.09
70407;BME280;57821;52.202;0.154;2023-05-24T09:40:44;102584.63;;;20.20;54.07
70407;BME280;57821;52.202;0.154;2023-05-24T09:43:11;102597.31;;;20.52;53.82
70407;BME280;57821;52.202;0.154;2023-05-24T09:45:41;102591.84;;;20.64;51.77
70407;BME280;57821;52.202;0.154;2023-05-24T09:48:12;102585.47;;;20.79;52.34
70407;BME280;57821;52.202;0.154;2023-05-24T09:50:39;102579.63;;;21.09;51.19
70407;BME280;57821;52.202;0.154;2023-05-24T09:53:06;102583.31;;;21.48;52.53
70407;BME280;57821;52.202;0.154;2023-05-24T09:55:36;102575.28;;;21.94;51.08
70407;BME280;57821;52.202;0.154;2023-05-24T09:58:03;102577.03;;;22.34;50.13
70407;BME280;57821;52.202;0.154;2023-05-24T10:00:40;102576.44;;;22.58;48.09
70407;BME280;57821;52.202;0.154;2023-05-24T10:03:10;102577.34;;;22.57;48.10
70407;BME280;57821;52.202;0.154;2023-05-24T10:05:40;102573.78;;;22.58;46.86
70407;BME280;57821;52.202;0.154;2023-05-24T10:08:07;102575.53;;;22.59;46.29
70407;BME280;57821;52.202;0.154;2023-05-24T10:10:35;102571.78;;;22.68;47.27
70407;BME280;57821;52.202;0.154;2023-05-24T10:13:02;102567.28;;;22.71;46.89
70407;BME280;57821;52.202;0.154;2023-05-24T10:15:28;102561.19;;;22.68;46.67
70407;BME280;57821;52.202;0.154;2023-05-24T10:17:56;102561.09;;;22.72;46.90
70407;BME280;57821;52.202;0.154;2023-05-24T10:20:23;102552.63;;;22.93;46.51
70407;BME280;57821;52.202;0.154;2023-05-24T10:23:00;102561.94;;;23.07;45.79
70407;BME280;57821;52.202;0.154;2023-05-24T10:25:28;102554.88;;;23.07;45.61
70407;BME280;57821;52.202;0.154;2023-05-24T10:28:02;102558.91;;;23.22;45.17
70407;BME280;57821;52.202;0.154;2023-05-24T10:33:13;102568.34;;;23.91;44.07
70407;BME280;57821;52.202;0.154;2023-05-24T10:35:42;102564.78;;;24.21;43.94
70407;BME280;57821;52.202;0.154;2023-05-24T10:38:09;102558.69;;;24.45;43.25
70407;BME280;57821;52.202;0.154;2023-05-24T10:40:42;102559.78;;;24.65;43.50
70407;BME280;57821;52.202;0.154;2023-05-24T10:43:09;102558.97;;;24.89;42.33
70407;BME280;57821;52.202;0.154;2023-05-24T10:45:37;102563.50;;;25.10;42.00
70407;BME280;57821;52.202;0.154;2023-05-24T10:50:41;102562.44;;;25.16;41.10
70407;BME280;57821;52.202;0.154;2023-05-24T10:53:12;102560.59;;;24.93;39.01
70407;BME280;57821;52.202;0.154;2023-05-24T10:56:00;102549.16;;;24.65;40.00
70407;BME280;57821;52.202;0.154;2023-05-24T10:58:44;102543.66;;;24.71;41.55
70407;BME280;57821;52.202;0.154;2023-05-24T11:01:24;102544.22;;;25.05;41.36
70407;BME280;57821;52.202;0.154;2023-05-24T11:04:15;102553.78;;;25.34;39.65
70407;BME280;57821;52.202;0.154;2023-05-24T11:06:53;102540.47;;;25.35;40.32
70407;BME280;57821;52.202;0.154;2023-05-24T11:09:21;102539.53;;;25.36;39.29
70407;BME280;57821;52.202;0.154;2023-05-24T11:11:50;102538.22;;;25.48;39.00
70407;BME280;57821;52.202;0.154;2023-05-24T11:14:23;102525.25;;;25.64;38.86
70407;BME280;57821;52.202;0.154;2023-05-24T11:16:50;102541.75;;;25.72;39.09
70407;BME280;57821;52.202;0.154;2023-05-24T11:19:19;102545.56;;;25.65;39.38
70407;BME280;57821;52.202;0.154;2023-05-24T11:21:48;102546.13;;;25.50;38.90
70407;BME280;57821;52.202;0.154;2023-05-24T11:24:16;102540.88;;;25.48;39.40
70407;BME280;57821;52.202;0.154;2023-05-24T11:26:44;102552.41;;;25.47;39.27
70407;BME280;57821;52.202;0.154;2023-05-24T11:29:14;102554.66;;;25.34;39.27
70407;BME280;57821;52.202;0.154;2023-05-24T11:31:46;102549.91;;;25.19;39.78
70407;BME280;57821;52.202;0.154;2023-05-24T11:34:13;102554.13;;;25.25;39.83
70407;BME280;57821;52.202;0.154;2023-05-24T11:36:39;102556.97;;;25.44;39.26
70407;BME280;57821;52.202;0.154;2023-05-24T11:39:07;102555.28;;;25.66;38.40
70407;BME280;57821;52.202;0.154;2023-05-24T11:41:44;102550.66;;;25.93;38.62
70407;BME280;57821;52.202;0.154;2023-05-24T11:44:20;102548.50;;;26.26;37.62
70407;BME280;57821;52.202;0.154;2023-05-24T11:46:57;102553.25;;;26.60;36.65
70407;BME280;57821;52.202;0.154;2023-05-24T11:49:31;102542.97;;;26.72;37.41
70407;BME280;57821;52.202;0.154;2023-05-24T11:51:59;102548.31;;;26.92;37.60
70407;BME280;57821;52.202;0.154;2023-05-24T11:54:27;102560.41;;;27.20;36.81
70407;BME280;57821;52.202;0.154;2023-05-24T11:56:54;102550.50;;;27.42;35.78
70407;BME280;57821;52.202;0.154;2023-05-24T11:59:31;102549.81;;;27.57;34.89
70407;BME280;57821;52.202;0.154;2023-05-24T12:02:07;102542.19;;;27.68;35.35
70407;BME280;57821;52.202;0.154;2023-05-24T12:04:44;102551.03;;;27.69;35.06
70407;BME280;57821;52.202;0.154;2023-05-24T12:07:18;102546.34;;;27.55;35.29
70407;BME280;57821;52.202;0.154;2023-05-24T12:09:49;102548.91;;;27.38;35.10
70407;BME280;57821;52.202;0.154;2023-05-24T12:12:25;102538.09;;;27.22;35.03
70407;BME280;57821;52.202;0.154;2023-05-24T12:15:06;102536.88;;;26.90;35.38
70407;BME280;57821;52.202;0.154;2023-05-24T12:17:33;102544.16;;;26.65;35.20
70407;BME280;57821;52.202;0.154;2023-05-24T12:20:01;102528.81;;;26.30;35.68
70407;BME280;57821;52.202;0.154;2023-05-24T12:22:28;102536.44;;;26.15;36.71
70407;BME280;57821;52.202;0.154;2023-05-24T12:24:55;102538.81;;;26.01;35.49
70407;BME280;57821;52.202;0.154;2023-05-24T12:27:29;102532.63;;;25.79;36.04
70407;BME280;57821;52.202;0.154;2023-05-24T12:29:56;102546.72;;;25.58;35.96
70407;BME280;57821;52.202;0.154;2023-05-24T12:32:31;102533.59;;;25.30;37.03
70407;BME280;57821;52.202;0.154;2023-05-24T12:34:57;102536.88;;;25.13;37.99
70407;BME280;57821;52.202;0.154;2023-05-24T12:37:24;102543.22;;;25.09;37.16
70407;BME280;57821;52.202;0.154;2023-05-24T12:39:51;102545.94;;;25.08;37.37
70407;BME280;57821;52.202;0.154;2023-05-24T12:42:20;102546.03;;;25.05;37.66
70407;BME280;57821;52.202;0.154;2023-05-24T12:44:46;102531.91;;;25.04;37.80
70407;BME280;57821;52.202;0.154;2023-05-24T12:47:13;102537.22;;;25.04;37.14
70407;BME280;57821;52.202;0.154;2023-05-24T12:49:40;102535.97;;;24.88;37.36
70407;BME280;57821;52.202;0.154;2023-05-24T12:52:06;102533.91;;;24.71;37.50
70407;BME280;57821;52.202;0.154;2023-05-24T12:54:33;102531.84;;;24.54;37.89
70407;BME280;57821;52.202;0.154;2023-05-24T12:56:59;102530.69;;;24.37;37.28
70407;BME280;57821;52.202;0.154;2023-05-24T12:59:26;102529.41;;;24.22;38.34
70407;BME280;57821;52.202;0.154;2023-05-24T13:01:53;102524.13;;;24.22;38.61
70407;BME280;57821;52.202;0.154;2023-05-24T13:04:21;102526.84;;;24.19;38.62
70407;BME280;57821;52.202;0.154;2023-05-24T13:06:48;102532.44;;;24.10;38.94
70407;BME280;57821;52.202;0.154;2023-05-24T13:09:15;102535.19;;;24.05;39.47
70407;BME280;57821;52.202;0.154;2023-05-24T13:11:41;102535.00;;;24.11;39.28
70407;BME280;57821;52.202;0.154;2023-05-24T13:14:08;102534.81;;;24.19;39.18